sensor_id;sensor_type;location;lat;lon;timestamp;P1;durP1;ratioP1;P2;durP2;ratioP2
4873;SDS011;2451;49.970;9.068;2023-02-28T00:00:06;4.43;;;3.03;;
4873;SDS011;2451;49.970;9.068;2023-02-28T00:02:35;6.10;;;3.33;;
4873;SDS011;2451;49.970;9.068;2023-02-28T00:05:04;5.72;;;2.92;;
4873;SDS011;2451;49.970;9.068;2023-02-28T00:07:31;5.18;;;2.95;;
4873;SDS011;2451;49.970;9.068;2023-02-28T00:09:57;4.72;;;2.78;;
4873;SDS011;2451;49.970;9.068;2023-02-28T00:12:23;6.30;;;2.92;;
4873;SDS011;2451;49.970;9.068;2023-02-28T00:14:49;5.07;;;2.90;;
4873;SDS011;2451;49.970;9.068;2023-02-28T00:17:17;4.85;;;2.78;;
4873;SDS011;2451;49.970;9.068;2023-02-28T00:19:47;5.57;;;2.85;;
4873;SDS011;2451;49.970;9.068;2023-02-28T00:22:13;4.22;;;2.58;;
4873;SDS011;2451;49.970;9.068;2023-02-28T00:24:40;5.40;;;2.92;;
4873;SDS011;2451;49.970;9.068;2023-02-28T00:27:06;5.18;;;2.83;;
4873;SDS011;2451;49.970;9.068;2023-02-28T00:29:31;4.82;;;2.90;;
4873;SDS011;2451;49.970;9.068;2023-02-28T00:31:57;4.82;;;2.92;;
4873;SDS011;2451;49.970;9.068;2023-02-28T00:34:23;3.97;;;2.80;;
4873;SDS011;2451;49.970;9.068;2023-02-28T00:36:48;5.78;;;2.83;;
4873;SDS011;2451;49.970;9.068;2023-02-28T00:39:14;3.67;;;2.60;;
4873;SDS011;2451;49.970;9.068;2023-02-28T00:41:41;3.85;;;2.53;;
4873;SDS011;2451;49.970;9.068;2023-02-28T00:44:06;4.93;;;2.88;;
4873;SDS011;2451;49.970;9.068;2023-02-28T00:46:34;4.85;;;2.60;;
4873;SDS011;2451;49.970;9.068;2023-02-28T00:49:00;4.80;;;2.92;;
4873;SDS011;2451;49.970;9.068;2023-02-28T00:51:26;5.75;;;2.92;;
4873;SDS011;2451;49.970;9.068;2023-02-28T00:53:51;3.75;;;2.45;;
4873;SDS011;2451;49.970;9.068;2023-02-28T00:56:17;5.70;;;3.00;;
4873;SDS011;2451;49.970;9.068;2023-02-28T00:58:42;4.72;;;2.70;;
4873;SDS011;2451;49.970;9.068;2023-02-28T01:01:08;4.15;;;2.70;;
4873;SDS011;2451;49.970;9.068;2023-02-28T01:03:34;5.35;;;3.00;;
4873;SDS011;2451;49.970;9.068;2023-02-28T01:05:59;4.55;;;2.70;;
4873;SDS011;2451;49.970;9.068;2023-02-28T01:08:25;4.20;;;2.80;;
4873;SDS011;2451;49.970;9.068;2023-02-28T01:10:51;7.07;;;3.13;;
4873;SDS011;2451;49.970;9.068;2023-02-28T01:13:18;6.75;;;3.20;;
4873;SDS011;2451;49.970;9.068;2023-02-28T01:15:51;4.30;;;2.78;;
4873;SDS011;2451;49.970;9.068;2023-02-28T01:18:19;8.85;;;3.53;;
4873;SDS011;2451;49.970;9.068;2023-02-28T01:20:46;4.57;;;2.85;;
4873;SDS011;2451;49.970;9.068;2023-02-28T01:23:12;5.88;;;3.20;;
4873;SDS011;2451;49.970;9.068;2023-02-28T01:25:38;5.78;;;3.20;;
4873;SDS011;2451;49.970;9.068;2023-02-28T01:28:04;5.03;;;3.22;;
4873;SDS011;2451;49.970;9.068;2023-02-28T01:30:30;5.47;;;3.05;;
4873;SDS011;2451;49.970;9.068;2023-02-28T01:32:56;5.65;;;2.67;;
4873;SDS011;2451;49.970;9.068;2023-02-28T01:35:21;5.55;;;3.08;;
4873;SDS011;2451;49.970;9.068;2023-02-28T01:37:47;5.63;;;3.40;;
4873;SDS011;2451;49.970;9.068;2023-02-28T01:40:13;5.03;;;3.05;;
4873;SDS011;2451;49.970;9.068;2023-02-28T01:42:38;6.63;;;3.35;;
4873;SDS011;2451;49.970;9.068;2023-02-28T01:47:47;4.75;;;3.15;;
4873;SDS011;2451;49.970;9.068;2023-02-28T01:50:18;5.10;;;3.20;;
4873;SDS011;2451;49.970;9.068;2023-02-28T01:55:16;5.30;;;3.10;;
4873;SDS011;2451;49.970;9.068;2023-02-28T01:57:45;5.20;;;3.50;;
4873;SDS011;2451;49.970;9.068;2023-02-28T02:00:15;7.10;;;3.47;;
4873;SDS011;2451;49.970;9.068;2023-02-28T02:02:43;6.35;;;3.35;;
4873;SDS011;2451;49.970;9.068;2023-02-28T02:05:14;8.10;;;3.38;;
4873;SDS011;2451;49.970;9.068;2023-02-28T02:07:42;5.03;;;2.85;;
4873;SDS011;2451;49.970;9.068;2023-02-28T02:10:12;4.07;;;3.30;;
4873;SDS011;2451;49.970;9.068;2023-02-28T02:15:26;5.20;;;3.30;;
4873;SDS011;2451;49.970;9.068;2023-02-28T02:18:18;5.15;;;3.13;;
4873;SDS011;2451;49.970;9.068;2023-02-28T02:26:54;5.82;;;2.95;;
4873;SDS011;2451;49.970;9.068;2023-02-28T02:35:12;5.10;;;3.22;;
4873;SDS011;2451;49.970;9.068;2023-02-28T02:37:50;5.03;;;3.30;;
4873;SDS011;2451;49.970;9.068;2023-02-28T02:40:23;4.90;;;3.10;;
4873;SDS011;2451;49.970;9.068;2023-02-28T02:42:57;5.03;;;3.20;;
4873;SDS011;2451;49.970;9.068;2023-02-28T02:45:32;5.10;;;3.10;;
4873;SDS011;2451;49.970;9.068;2023-02-28T02:48:03;5.03;;;3.13;;
4873;SDS011;2451;49.970;9.068;2023-02-28T02:50:35;5.85;;;3.10;;
4873;SDS011;2451;49.970;9.068;2023-02-28T02:53:04;5.05;;;3.35;;
4873;SDS011;2451;49.970;9.068;2023-02-28T02:55:32;5.57;;;3.17;;
4873;SDS011;2451;49.970;9.068;2023-02-28T02:58:03;6.20;;;3.65;;
4873;SDS011;2451;49.970;9.068;2023-02-28T03:00:33;7.22;;;3.42;;
4873;SDS011;2451;49.970;9.068;2023-02-28T03:03:06;5.57;;;3.40;;
4873;SDS011;2451;49.970;9.068;2023-02-28T03:05:54;4.72;;;3.35;;
4873;SDS011;2451;49.970;9.068;2023-02-28T03:08:20;5.45;;;3.10;;
4873;SDS011;2451;49.970;9.068;2023-02-28T03:10:46;7.25;;;3.33;;
4873;SDS011;2451;49.970;9.068;2023-02-28T03:18:55;5.68;;;3.13;;
4873;SDS011;2451;49.970;9.068;2023-02-28T03:21:37;5.25;;;3.17;;
4873;SDS011;2451;49.970;9.068;2023-02-28T03:27:30;6.60;;;3.90;;
4873;SDS011;2451;49.970;9.068;2023-02-28T03:32:33;4.70;;;3.47;;
4873;SDS011;2451;49.970;9.068;2023-02-28T03:37:48;6.55;;;3.72;;
4873;SDS011;2451;49.970;9.068;2023-02-28T03:40:17;6.53;;;3.72;;
4873;SDS011;2451;49.970;9.068;2023-02-28T03:42:47;5.05;;;3.35;;
4873;SDS011;2451;49.970;9.068;2023-02-28T03:45:17;7.38;;;3.97;;
4873;SDS011;2451;49.970;9.068;2023-02-28T03:47:54;5.65;;;3.42;;
4873;SDS011;2451;49.970;9.068;2023-02-28T03:53:04;9.50;;;4.72;;
4873;SDS011;2451;49.970;9.068;2023-02-28T03:55:46;9.85;;;5.10;;
4873;SDS011;2451;49.970;9.068;2023-02-28T03:58:16;11.40;;;5.35;;
4873;SDS011;2451;49.970;9.068;2023-02-28T04:01:00;9.20;;;5.20;;
4873;SDS011;2451;49.970;9.068;2023-02-28T04:03:40;7.72;;;4.32;;
4873;SDS011;2451;49.970;9.068;2023-02-28T04:06:07;6.38;;;4.20;;
4873;SDS011;2451;49.970;9.068;2023-02-28T04:08:38;8.75;;;4.20;;
4873;SDS011;2451;49.970;9.068;2023-02-28T04:11:05;7.10;;;4.20;;
4873;SDS011;2451;49.970;9.068;2023-02-28T04:13:39;6.55;;;4.20;;
4873;SDS011;2451;49.970;9.068;2023-02-28T04:16:08;6.75;;;4.20;;
4873;SDS011;2451;49.970;9.068;2023-02-28T04:18:37;6.93;;;4.40;;
4873;SDS011;2451;49.970;9.068;2023-02-28T04:21:07;7.07;;;4.22;;
4873;SDS011;2451;49.970;9.068;2023-02-28T04:23:33;7.53;;;4.03;;
4873;SDS011;2451;49.970;9.068;2023-02-28T04:25:59;6.50;;;4.32;;
4873;SDS011;2451;49.970;9.068;2023-02-28T04:28:24;6.13;;;3.40;;
4873;SDS011;2451;49.970;9.068;2023-02-28T04:30:54;4.78;;;3.75;;
4873;SDS011;2451;49.970;9.068;2023-02-28T04:33:21;6.00;;;3.78;;
4873;SDS011;2451;49.970;9.068;2023-02-28T04:35:46;6.13;;;3.97;;
4873;SDS011;2451;49.970;9.068;2023-02-28T04:38:12;5.75;;;3.65;;
4873;SDS011;2451;49.970;9.068;2023-02-28T04:40:37;5.57;;;3.88;;
4873;SDS011;2451;49.970;9.068;2023-02-28T04:43:02;5.13;;;3.75;;
4873;SDS011;2451;49.970;9.068;2023-02-28T04:45:28;7.90;;;4.03;;
4873;SDS011;2451;49.970;9.068;2023-02-28T04:47:57;7.45;;;4.05;;
4873;SDS011;2451;49.970;9.068;2023-02-28T04:50:22;6.25;;;3.78;;
4873;SDS011;2451;49.970;9.068;2023-02-28T04:52:48;6.30;;;3.58;;
4873;SDS011;2451;49.970;9.068;2023-02-28T04:55:14;5.47;;;3.55;;
4873;SDS011;2451;49.970;9.068;2023-02-28T04:57:39;8.85;;;4.43;;
4873;SDS011;2451;49.970;9.068;2023-02-28T05:00:07;4.85;;;3.30;;
4873;SDS011;2451;49.970;9.068;2023-02-28T05:02:36;6.65;;;3.70;;
4873;SDS011;2451;49.970;9.068;2023-02-28T05:05:04;6.15;;;3.97;;
4873;SDS011;2451;49.970;9.068;2023-02-28T05:07:30;6.55;;;3.97;;
4873;SDS011;2451;49.970;9.068;2023-02-28T05:09:55;5.80;;;3.80;;
4873;SDS011;2451;49.970;9.068;2023-02-28T05:12:21;5.38;;;3.70;;
4873;SDS011;2451;49.970;9.068;2023-02-28T05:14:46;5.00;;;3.47;;
4873;SDS011;2451;49.970;9.068;2023-02-28T05:17:12;6.05;;;3.95;;
4873;SDS011;2451;49.970;9.068;2023-02-28T05:19:37;6.30;;;3.70;;
4873;SDS011;2451;49.970;9.068;2023-02-28T05:22:03;6.35;;;3.40;;
4873;SDS011;2451;49.970;9.068;2023-02-28T05:24:29;6.03;;;3.40;;
4873;SDS011;2451;49.970;9.068;2023-02-28T05:26:55;5.18;;;3.50;;
4873;SDS011;2451;49.970;9.068;2023-02-28T05:29:21;8.43;;;3.25;;
4873;SDS011;2451;49.970;9.068;2023-02-28T05:31:47;8.48;;;3.90;;
4873;SDS011;2451;49.970;9.068;2023-02-28T05:34:12;6.47;;;3.55;;
4873;SDS011;2451;49.970;9.068;2023-02-28T05:36:40;7.05;;;3.33;;
4873;SDS011;2451;49.970;9.068;2023-02-28T05:39:06;6.65;;;3.33;;
4873;SDS011;2451;49.970;9.068;2023-02-28T05:41:37;5.53;;;3.67;;
4873;SDS011;2451;49.970;9.068;2023-02-28T05:44:03;5.95;;;3.83;;
4873;SDS011;2451;49.970;9.068;2023-02-28T05:46:29;5.13;;;3.47;;
4873;SDS011;2451;49.970;9.068;2023-02-28T05:48:54;7.72;;;3.63;;
4873;SDS011;2451;49.970;9.068;2023-02-28T05:51:22;5.63;;;3.28;;
4873;SDS011;2451;49.970;9.068;2023-02-28T05:53:48;9.10;;;3.72;;
4873;SDS011;2451;49.970;9.068;2023-02-28T05:56:14;10.35;;;3.80;;
4873;SDS011;2451;49.970;9.068;2023-02-28T05:58:39;7.88;;;3.67;;
4873;SDS011;2451;49.970;9.068;2023-02-28T06:03:59;5.97;;;3.40;;
4873;SDS011;2451;49.970;9.068;2023-02-28T06:06:25;4.97;;;3.28;;
4873;SDS011;2451;49.970;9.068;2023-02-28T06:08:51;5.85;;;3.63;;
4873;SDS011;2451;49.970;9.068;2023-02-28T06:11:16;4.78;;;3.20;;
4873;SDS011;2451;49.970;9.068;2023-02-28T06:13:42;6.95;;;3.38;;
4873;SDS011;2451;49.970;9.068;2023-02-28T06:16:09;6.25;;;3.78;;
4873;SDS011;2451;49.970;9.068;2023-02-28T06:18:35;7.60;;;3.30;;
4873;SDS011;2451;49.970;9.068;2023-02-28T06:21:01;5.70;;;3.22;;
4873;SDS011;2451;49.970;9.068;2023-02-28T06:23:27;6.00;;;3.53;;
4873;SDS011;2451;49.970;9.068;2023-02-28T06:25:52;6.45;;;3.97;;
4873;SDS011;2451;49.970;9.068;2023-02-28T06:28:18;8.30;;;4.03;;
4873;SDS011;2451;49.970;9.068;2023-02-28T06:30:44;9.88;;;4.05;;
4873;SDS011;2451;49.970;9.068;2023-02-28T06:33:09;11.73;;;4.55;;
4873;SDS011;2451;49.970;9.068;2023-02-28T06:35:35;9.73;;;4.40;;
4873;SDS011;2451;49.970;9.068;2023-02-28T06:38:00;10.90;;;4.05;;
4873;SDS011;2451;49.970;9.068;2023-02-28T06:40:26;7.20;;;4.00;;
4873;SDS011;2451;49.970;9.068;2023-02-28T06:42:52;9.55;;;4.10;;
4873;SDS011;2451;49.970;9.068;2023-02-28T06:45:17;7.18;;;4.13;;
4873;SDS011;2451;49.970;9.068;2023-02-28T06:47:43;7.18;;;3.72;;
4873;SDS011;2451;49.970;9.068;2023-02-28T06:50:09;6.22;;;3.40;;
4873;SDS011;2451;49.970;9.068;2023-02-28T06:52:36;7.57;;;3.80;;
4873;SDS011;2451;49.970;9.068;2023-02-28T06:55:03;6.43;;;3.88;;
4873;SDS011;2451;49.970;9.068;2023-02-28T06:57:30;9.68;;;3.60;;
4873;SDS011;2451;49.970;9.068;2023-02-28T06:59:57;6.95;;;4.40;;
4873;SDS011;2451;49.970;9.068;2023-02-28T07:02:24;6.97;;;3.85;;
4873;SDS011;2451;49.970;9.068;2023-02-28T07:04:49;6.63;;;3.90;;
4873;SDS011;2451;49.970;9.068;2023-02-28T07:07:15;7.07;;;3.85;;
4873;SDS011;2451;49.970;9.068;2023-02-28T07:09:40;6.35;;;3.20;;
4873;SDS011;2451;49.970;9.068;2023-02-28T07:12:06;6.53;;;3.50;;
4873;SDS011;2451;49.970;9.068;2023-02-28T07:14:31;4.93;;;3.00;;
4873;SDS011;2451;49.970;9.068;2023-02-28T07:16:57;7.63;;;3.17;;
4873;SDS011;2451;49.970;9.068;2023-02-28T07:19:23;6.40;;;2.90;;
4873;SDS011;2451;49.970;9.068;2023-02-28T07:21:48;6.13;;;3.30;;
4873;SDS011;2451;49.970;9.068;2023-02-28T07:24:14;6.95;;;3.20;;
4873;SDS011;2451;49.970;9.068;2023-02-28T07:26:40;6.65;;;3.63;;
4873;SDS011;2451;49.970;9.068;2023-02-28T07:29:06;7.25;;;3.22;;
4873;SDS011;2451;49.970;9.068;2023-02-28T07:31:32;9.52;;;3.85;;
4873;SDS011;2451;49.970;9.068;2023-02-28T07:33:57;7.20;;;3.58;;
4873;SDS011;2451;49.970;9.068;2023-02-28T07:36:23;6.82;;;3.90;;
4873;SDS011;2451;49.970;9.068;2023-02-28T07:38:49;5.85;;;3.60;;
4873;SDS011;2451;49.970;9.068;2023-02-28T07:41:18;6.28;;;3.35;;
4873;SDS011;2451;49.970;9.068;2023-02-28T07:43:46;5.57;;;3.38;;
4873;SDS011;2451;49.970;9.068;2023-02-28T07:46:12;6.25;;;3.70;;
4873;SDS011;2451;49.970;9.068;2023-02-28T07:48:43;6.47;;;3.50;;
4873;SDS011;2451;49.970;9.068;2023-02-28T07:51:08;8.57;;;3.65;;
4873;SDS011;2451;49.970;9.068;2023-02-28T07:53:34;10.60;;;3.80;;
4873;SDS011;2451;49.970;9.068;2023-02-28T07:56:00;9.15;;;4.10;;
4873;SDS011;2451;49.970;9.068;2023-02-28T07:58:27;6.72;;;4.10;;
4873;SDS011;2451;49.970;9.068;2023-02-28T08:00:55;6.88;;;3.63;;
4873;SDS011;2451;49.970;9.068;2023-02-28T08:03:21;6.57;;;3.95;;
4873;SDS011;2451;49.970;9.068;2023-02-28T08:05:48;7.88;;;3.90;;
4873;SDS011;2451;49.970;9.068;2023-02-28T08:08:14;7.95;;;4.57;;
4873;SDS011;2451;49.970;9.068;2023-02-28T08:10:40;6.68;;;4.32;;
4873;SDS011;2451;49.970;9.068;2023-02-28T08:13:07;8.88;;;4.25;;
4873;SDS011;2451;49.970;9.068;2023-02-28T08:15:32;7.18;;;3.92;;
4873;SDS011;2451;49.970;9.068;2023-02-28T08:17:58;8.05;;;4.65;;
4873;SDS011;2451;49.970;9.068;2023-02-28T08:20:24;6.82;;;4.40;;
4873;SDS011;2451;49.970;9.068;2023-02-28T08:22:53;9.85;;;4.90;;
4873;SDS011;2451;49.970;9.068;2023-02-28T08:25:19;7.60;;;4.35;;
4873;SDS011;2451;49.970;9.068;2023-02-28T08:27:44;7.82;;;4.50;;
4873;SDS011;2451;49.970;9.068;2023-02-28T08:30:11;8.90;;;4.80;;
4873;SDS011;2451;49.970;9.068;2023-02-28T08:32:38;12.57;;;5.22;;
4873;SDS011;2451;49.970;9.068;2023-02-28T08:35:04;9.73;;;4.93;;
4873;SDS011;2451;49.970;9.068;2023-02-28T08:37:30;9.23;;;5.30;;
4873;SDS011;2451;49.970;9.068;2023-02-28T08:39:56;7.93;;;5.00;;
4873;SDS011;2451;49.970;9.068;2023-02-28T08:42:21;8.05;;;5.30;;
4873;SDS011;2451;49.970;9.068;2023-02-28T08:44:47;9.23;;;5.18;;
4873;SDS011;2451;49.970;9.068;2023-02-28T08:47:13;9.73;;;5.60;;
4873;SDS011;2451;49.970;9.068;2023-02-28T08:49:38;11.45;;;5.78;;
4873;SDS011;2451;49.970;9.068;2023-02-28T08:52:04;11.85;;;5.70;;
4873;SDS011;2451;49.970;9.068;2023-02-28T08:54:29;10.07;;;6.28;;
4873;SDS011;2451;49.970;9.068;2023-02-28T08:56:57;13.27;;;6.18;;
4873;SDS011;2451;49.970;9.068;2023-02-28T08:59:22;12.25;;;5.75;;
4873;SDS011;2451;49.970;9.068;2023-02-28T09:01:48;9.10;;;5.10;;
4873;SDS011;2451;49.970;9.068;2023-02-28T09:04:13;9.50;;;5.50;;
4873;SDS011;2451;49.970;9.068;2023-02-28T09:06:39;8.00;;;5.80;;
4873;SDS011;2451;49.970;9.068;2023-02-28T09:09:05;8.13;;;5.68;;
4873;SDS011;2451;49.970;9.068;2023-02-28T09:11:32;9.30;;;5.57;;
4873;SDS011;2451;49.970;9.068;2023-02-28T09:13:58;10.63;;;5.68;;
4873;SDS011;2451;49.970;9.068;2023-02-28T09:16:28;7.80;;;5.13;;
4873;SDS011;2451;49.970;9.068;2023-02-28T09:18:55;10.10;;;5.53;;
4873;SDS011;2451;49.970;9.068;2023-02-28T09:21:21;9.90;;;5.90;;
4873;SDS011;2451;49.970;9.068;2023-02-28T09:23:48;9.95;;;5.72;;
4873;SDS011;2451;49.970;9.068;2023-02-28T09:26:15;10.77;;;5.43;;
4873;SDS011;2451;49.970;9.068;2023-02-28T09:28:43;12.10;;;5.63;;
4873;SDS011;2451;49.970;9.068;2023-02-28T09:31:13;13.35;;;5.95;;
4873;SDS011;2451;49.970;9.068;2023-02-28T09:33:45;9.88;;;5.20;;
4873;SDS011;2451;49.970;9.068;2023-02-28T09:36:11;12.18;;;5.97;;
4873;SDS011;2451;49.970;9.068;2023-02-28T09:38:37;8.45;;;5.40;;
4873;SDS011;2451;49.970;9.068;2023-02-28T09:41:03;9.00;;;5.43;;
4873;SDS011;2451;49.970;9.068;2023-02-28T09:43:37;10.18;;;5.53;;
4873;SDS011;2451;49.970;9.068;2023-02-28T09:48:41;8.80;;;5.53;;
4873;SDS011;2451;49.970;9.068;2023-02-28T09:51:14;9.15;;;5.45;;
4873;SDS011;2451;49.970;9.068;2023-02-28T09:53:54;10.38;;;5.70;;
4873;SDS011;2451;49.970;9.068;2023-02-28T09:56:21;10.70;;;5.50;;
4873;SDS011;2451;49.970;9.068;2023-02-28T09:58:57;8.20;;;5.30;;
4873;SDS011;2451;49.970;9.068;2023-02-28T10:01:50;8.38;;;5.47;;
4873;SDS011;2451;49.970;9.068;2023-02-28T10:06:49;8.43;;;5.22;;
4873;SDS011;2451;49.970;9.068;2023-02-28T10:11:52;9.23;;;5.03;;
4873;SDS011;2451;49.970;9.068;2023-02-28T10:14:19;10.30;;;5.70;;
4873;SDS011;2451;49.970;9.068;2023-02-28T10:16:48;14.05;;;5.85;;
4873;SDS011;2451;49.970;9.068;2023-02-28T10:22:11;9.60;;;5.95;;
4873;SDS011;2451;49.970;9.068;2023-02-28T10:24:47;9.18;;;5.65;;
4873;SDS011;2451;49.970;9.068;2023-02-28T10:27:20;8.48;;;5.65;;
4873;SDS011;2451;49.970;9.068;2023-02-28T10:29:49;12.63;;;5.60;;
4873;SDS011;2451;49.970;9.068;2023-02-28T10:32:18;11.27;;;5.63;;
4873;SDS011;2451;49.970;9.068;2023-02-28T10:34:50;9.32;;;6.25;;
4873;SDS011;2451;49.970;9.068;2023-02-28T10:37:25;9.32;;;5.45;;
4873;SDS011;2451;49.970;9.068;2023-02-28T10:39:52;10.40;;;5.82;;
4873;SDS011;2451;49.970;9.068;2023-02-28T10:45:13;10.55;;;5.15;;
4873;SDS011;2451;49.970;9.068;2023-02-28T10:47:51;8.18;;;5.05;;
4873;SDS011;2451;49.970;9.068;2023-02-28T10:50:34;8.33;;;5.63;;
4873;SDS011;2451;49.970;9.068;2023-02-28T10:56:09;9.70;;;5.97;;
4873;SDS011;2451;49.970;9.068;2023-02-28T10:58:58;9.40;;;5.35;;
4873;SDS011;2451;49.970;9.068;2023-02-28T11:04:02;7.80;;;5.03;;
4873;SDS011;2451;49.970;9.068;2023-02-28T11:06:29;9.23;;;6.07;;
4873;SDS011;2451;49.970;9.068;2023-02-28T11:11:31;9.10;;;5.90;;
4873;SDS011;2451;49.970;9.068;2023-02-28T11:14:16;9.02;;;5.40;;
4873;SDS011;2451;49.970;9.068;2023-02-28T11:16:48;8.30;;;5.43;;
4873;SDS011;2451;49.970;9.068;2023-02-28T11:19:20;9.63;;;5.78;;
4873;SDS011;2451;49.970;9.068;2023-02-28T11:21:57;9.57;;;5.85;;
4873;SDS011;2451;49.970;9.068;2023-02-28T11:24:25;9.82;;;6.03;;
4873;SDS011;2451;49.970;9.068;2023-02-28T11:26:55;8.73;;;6.18;;
4873;SDS011;2451;49.970;9.068;2023-02-28T11:29:23;10.95;;;6.35;;
4873;SDS011;2451;49.970;9.068;2023-02-28T11:34:44;9.93;;;5.75;;
4873;SDS011;2451;49.970;9.068;2023-02-28T11:37:16;10.90;;;7.13;;
4873;SDS011;2451;49.970;9.068;2023-02-28T11:39:44;8.75;;;6.50;;
4873;SDS011;2451;49.970;9.068;2023-02-28T11:42:30;11.55;;;7.03;;
4873;SDS011;2451;49.970;9.068;2023-02-28T11:48:06;10.25;;;6.60;;
4873;SDS011;2451;49.970;9.068;2023-02-28T11:53:35;10.93;;;6.38;;
4873;SDS011;2451;49.970;9.068;2023-02-28T11:59:02;8.80;;;5.60;;
4873;SDS011;2451;49.970;9.068;2023-02-28T12:02:45;9.32;;;6.00;;
4873;SDS011;2451;49.970;9.068;2023-02-28T12:04:54;9.32;;;6.22;;
4873;SDS011;2451;49.970;9.068;2023-02-28T12:08:01;10.35;;;6.55;;
4873;SDS011;2451;49.970;9.068;2023-02-28T12:13:55;8.93;;;5.57;;
4873;SDS011;2451;49.970;9.068;2023-02-28T12:16:34;10.25;;;6.53;;
4873;SDS011;2451;49.970;9.068;2023-02-28T12:19:24;8.40;;;6.45;;
4873;SDS011;2451;49.970;9.068;2023-02-28T12:21:59;9.68;;;6.22;;
4873;SDS011;2451;49.970;9.068;2023-02-28T12:24:49;9.07;;;6.60;;
4873;SDS011;2451;49.970;9.068;2023-02-28T12:27:26;8.65;;;6.13;;
4873;SDS011;2451;49.970;9.068;2023-02-28T12:29:57;9.52;;;5.65;;
4873;SDS011;2451;49.970;9.068;2023-02-28T12:32:30;10.15;;;6.13;;
4873;SDS011;2451;49.970;9.068;2023-02-28T12:35:10;8.75;;;5.95;;
4873;SDS011;2451;49.970;9.068;2023-02-28T12:37:41;10.75;;;6.38;;
4873;SDS011;2451;49.970;9.068;2023-02-28T12:40:12;12.88;;;6.47;;
4873;SDS011;2451;49.970;9.068;2023-02-28T12:42:45;11.40;;;6.22;;
4873;SDS011;2451;49.970;9.068;2023-02-28T12:45:18;10.75;;;6.78;;
4873;SDS011;2451;49.970;9.068;2023-02-28T12:47:54;9.48;;;6.63;;
4873;SDS011;2451;49.970;9.068;2023-02-28T12:50:26;10.55;;;6.53;;
4873;SDS011;2451;49.970;9.068;2023-02-28T12:52:56;13.00;;;6.00;;
4873;SDS011;2451;49.970;9.068;2023-02-28T12:55:30;10.30;;;6.50;;
4873;SDS011;2451;49.970;9.068;2023-02-28T12:58:07;10.05;;;6.25;;
4873;SDS011;2451;49.970;9.068;2023-02-28T13:01:06;9.80;;;5.97;;
4873;SDS011;2451;49.970;9.068;2023-02-28T13:04:00;9.73;;;6.72;;
4873;SDS011;2451;49.970;9.068;2023-02-28T13:09:28;9.60;;;6.30;;
4873;SDS011;2451;49.970;9.068;2023-02-28T13:11:54;9.48;;;6.47;;
4873;SDS011;2451;49.970;9.068;2023-02-28T13:14:23;8.52;;;5.90;;
4873;SDS011;2451;49.970;9.068;2023-02-28T13:19:44;10.13;;;6.20;;
4873;SDS011;2451;49.970;9.068;2023-02-28T13:24:51;10.98;;;6.32;;
4873;SDS011;2451;49.970;9.068;2023-02-28T13:29:53;7.90;;;5.75;;
4873;SDS011;2451;49.970;9.068;2023-02-28T13:32:20;10.13;;;6.18;;
4873;SDS011;2451;49.970;9.068;2023-02-28T13:47:41;12.30;;;6.38;;
4873;SDS011;2451;49.970;9.068;2023-02-28T13:50:23;12.50;;;6.53;;
4873;SDS011;2451;49.970;9.068;2023-02-28T14:06:51;10.75;;;6.13;;
4873;SDS011;2451;49.970;9.068;2023-02-28T14:09:21;11.45;;;5.88;;
4873;SDS011;2451;49.970;9.068;2023-02-28T14:11:55;8.50;;;6.00;;
4873;SDS011;2451;49.970;9.068;2023-02-28T14:17:06;10.00;;;6.60;;
4873;SDS011;2451;49.970;9.068;2023-02-28T14:19:37;9.98;;;6.15;;
4873;SDS011;2451;49.970;9.068;2023-02-28T14:33:08;9.07;;;6.40;;
4873;SDS011;2451;49.970;9.068;2023-02-28T14:38:56;10.98;;;6.10;;
4873;SDS011;2451;49.970;9.068;2023-02-28T14:44:02;17.83;;;6.50;;
4873;SDS011;2451;49.970;9.068;2023-02-28T14:46:38;8.65;;;5.80;;
4873;SDS011;2451;49.970;9.068;2023-02-28T14:49:06;10.38;;;6.05;;
4873;SDS011;2451;49.970;9.068;2023-02-28T14:51:37;8.15;;;5.95;;
4873;SDS011;2451;49.970;9.068;2023-02-28T14:54:03;9.85;;;6.65;;
4873;SDS011;2451;49.970;9.068;2023-02-28T14:56:48;14.05;;;6.20;;
4873;SDS011;2451;49.970;9.068;2023-02-28T14:59:28;9.38;;;6.57;;
4873;SDS011;2451;49.970;9.068;2023-02-28T15:04:39;8.30;;;6.00;;
4873;SDS011;2451;49.970;9.068;2023-02-28T15:07:15;10.73;;;6.13;;
4873;SDS011;2451;49.970;9.068;2023-02-28T15:09:41;10.65;;;6.80;;
4873;SDS011;2451;49.970;9.068;2023-02-28T15:12:06;9.88;;;6.88;;
4873;SDS011;2451;49.970;9.068;2023-02-28T15:14:42;11.07;;;7.25;;
4873;SDS011;2451;49.970;9.068;2023-02-28T15:17:14;10.53;;;6.40;;
4873;SDS011;2451;49.970;9.068;2023-02-28T15:19:47;9.23;;;6.68;;
4873;SDS011;2451;49.970;9.068;2023-02-28T15:22:16;9.32;;;6.53;;
4873;SDS011;2451;49.970;9.068;2023-02-28T15:24:49;9.23;;;6.00;;
4873;SDS011;2451;49.970;9.068;2023-02-28T15:27:29;9.00;;;6.18;;
4873;SDS011;2451;49.970;9.068;2023-02-28T15:29:58;9.45;;;6.38;;
4873;SDS011;2451;49.970;9.068;2023-02-28T15:34:56;8.77;;;6.60;;
4873;SDS011;2451;49.970;9.068;2023-02-28T15:37:27;10.85;;;6.00;;
4873;SDS011;2451;49.970;9.068;2023-02-28T15:45:38;9.98;;;6.80;;
4873;SDS011;2451;49.970;9.068;2023-02-28T15:48:17;10.88;;;7.45;;
4873;SDS011;2451;49.970;9.068;2023-02-28T15:50:52;9.55;;;6.45;;
4873;SDS011;2451;49.970;9.068;2023-02-28T15:53:24;9.07;;;6.53;;
4873;SDS011;2451;49.970;9.068;2023-02-28T15:56:38;11.25;;;6.20;;
4873;SDS011;2451;49.970;9.068;2023-02-28T15:58:46;8.90;;;6.38;;
4873;SDS011;2451;49.970;9.068;2023-02-28T16:01:20;13.18;;;6.78;;
4873;SDS011;2451;49.970;9.068;2023-02-28T16:03:50;10.57;;;6.38;;
4873;SDS011;2451;49.970;9.068;2023-02-28T16:06:24;9.23;;;5.97;;
4873;SDS011;2451;49.970;9.068;2023-02-28T16:08:53;10.45;;;6.13;;
4873;SDS011;2451;49.970;9.068;2023-02-28T16:11:19;8.75;;;6.13;;
4873;SDS011;2451;49.970;9.068;2023-02-28T16:13:46;10.15;;;6.60;;
4873;SDS011;2451;49.970;9.068;2023-02-28T16:16:16;10.68;;;6.85;;
4873;SDS011;2451;49.970;9.068;2023-02-28T16:18:46;12.82;;;6.80;;
4873;SDS011;2451;49.970;9.068;2023-02-28T16:21:12;10.75;;;6.30;;
4873;SDS011;2451;49.970;9.068;2023-02-28T16:23:38;11.75;;;6.80;;
4873;SDS011;2451;49.970;9.068;2023-02-28T16:26:03;9.85;;;6.20;;
4873;SDS011;2451;49.970;9.068;2023-02-28T16:28:31;11.57;;;6.72;;
4873;SDS011;2451;49.970;9.068;2023-02-28T16:31:02;9.93;;;6.90;;
4873;SDS011;2451;49.970;9.068;2023-02-28T16:33:30;14.10;;;7.15;;
4873;SDS011;2451;49.970;9.068;2023-02-28T16:35:56;8.60;;;6.45;;
4873;SDS011;2451;49.970;9.068;2023-02-28T16:38:22;11.70;;;6.88;;
4873;SDS011;2451;49.970;9.068;2023-02-28T16:40:49;13.65;;;7.70;;
4873;SDS011;2451;49.970;9.068;2023-02-28T16:43:17;11.98;;;7.32;;
4873;SDS011;2451;49.970;9.068;2023-02-28T16:45:48;13.32;;;8.77;;
4873;SDS011;2451;49.970;9.068;2023-02-28T16:48:14;9.68;;;6.85;;
4873;SDS011;2451;49.970;9.068;2023-02-28T16:50:41;11.32;;;7.97;;
4873;SDS011;2451;49.970;9.068;2023-02-28T16:53:09;12.55;;;7.63;;
4873;SDS011;2451;49.970;9.068;2023-02-28T16:55:35;14.05;;;8.63;;
4873;SDS011;2451;49.970;9.068;2023-02-28T16:58:01;12.20;;;7.45;;
4873;SDS011;2451;49.970;9.068;2023-02-28T17:00:28;12.77;;;7.40;;
4873;SDS011;2451;49.970;9.068;2023-02-28T17:02:55;12.57;;;8.27;;
4873;SDS011;2451;49.970;9.068;2023-02-28T17:05:21;11.68;;;7.60;;
4873;SDS011;2451;49.970;9.068;2023-02-28T17:07:47;13.27;;;7.95;;
4873;SDS011;2451;49.970;9.068;2023-02-28T17:10:17;11.63;;;8.30;;
4873;SDS011;2451;49.970;9.068;2023-02-28T17:12:45;13.65;;;7.93;;
4873;SDS011;2451;49.970;9.068;2023-02-28T17:15:11;13.75;;;8.43;;
4873;SDS011;2451;49.970;9.068;2023-02-28T17:17:38;16.80;;;12.07;;
4873;SDS011;2451;49.970;9.068;2023-02-28T17:20:04;16.85;;;8.50;;
4873;SDS011;2451;49.970;9.068;2023-02-28T17:22:31;14.70;;;8.40;;
4873;SDS011;2451;49.970;9.068;2023-02-28T17:24:57;14.75;;;9.63;;
4873;SDS011;2451;49.970;9.068;2023-02-28T17:27:23;15.35;;;9.18;;
4873;SDS011;2451;49.970;9.068;2023-02-28T17:29:49;15.45;;;9.45;;
4873;SDS011;2451;49.970;9.068;2023-02-28T17:32:15;15.30;;;9.57;;
4873;SDS011;2451;49.970;9.068;2023-02-28T17:34:41;16.60;;;9.77;;
4873;SDS011;2451;49.970;9.068;2023-02-28T17:37:07;13.80;;;8.30;;
4873;SDS011;2451;49.970;9.068;2023-02-28T17:39:33;13.90;;;8.82;;
4873;SDS011;2451;49.970;9.068;2023-02-28T17:42:02;13.32;;;8.52;;
4873;SDS011;2451;49.970;9.068;2023-02-28T17:44:28;13.60;;;9.45;;
4873;SDS011;2451;49.970;9.068;2023-02-28T17:46:54;15.98;;;9.18;;
4873;SDS011;2451;49.970;9.068;2023-02-28T17:49:20;13.35;;;9.57;;